sensor_id;sensor_type;location;lat;lon;timestamp;P1;durP1;ratioP1;P2;durP2;ratioP2
12802;SDS011;6465;42.700;23.278;2024-02-21T00:02:05;5.50;;;5.00;;
12802;SDS011;6465;42.700;23.278;2024-02-21T00:04:32;5.47;;;4.97;;
12802;SDS011;6465;42.700;23.278;2024-02-21T00:07:00;5.60;;;5.10;;
12802;SDS011;6465;42.700;23.278;2024-02-21T00:09:28;5.70;;;5.10;;
12802;SDS011;6465;42.700;23.278;2024-02-21T00:11:55;5.43;;;4.90;;
12802;SDS011;6465;42.700;23.278;2024-02-21T00:14:23;5.93;;;5.43;;
12802;SDS011;6465;42.700;23.278;2024-02-21T00:16:50;5.40;;;5.00;;
12802;SDS011;6465;42.700;23.278;2024-02-21T00:19:17;6.00;;;5.50;;
12802;SDS011;6465;42.700;23.278;2024-02-21T00:21:44;6.60;;;6.00;;
12802;SDS011;6465;42.700;23.278;2024-02-21T00:24:11;5.40;;;5.00;;
12802;SDS011;6465;42.700;23.278;2024-02-21T00:26:39;6.40;;;5.83;;
12802;SDS011;6465;42.700;23.278;2024-02-21T00:29:06;5.70;;;5.30;;
12802;SDS011;6465;42.700;23.278;2024-02-21T00:31:33;5.50;;;5.00;;
12802;SDS011;6465;42.700;23.278;2024-02-21T00:34:00;6.00;;;5.50;;
12802;SDS011;6465;42.700;23.278;2024-02-21T00:36:27;5.30;;;4.90;;
12802;SDS011;6465;42.700;23.278;2024-02-21T00:38:54;5.77;;;5.27;;
12802;SDS011;6465;42.700;23.278;2024-02-21T00:41:21;5.77;;;5.30;;
12802;SDS011;6465;42.700;23.278;2024-02-21T00:43:49;5.30;;;4.80;;
12802;SDS011;6465;42.700;23.278;2024-02-21T00:46:16;4.60;;;4.30;;
12802;SDS011;6465;42.700;23.278;2024-02-21T00:48:43;4.90;;;4.50;;
12802;SDS011;6465;42.700;23.278;2024-02-21T00:51:10;5.03;;;4.57;;
12802;SDS011;6465;42.700;23.278;2024-02-21T00:53:37;5.10;;;4.70;;
12802;SDS011;6465;42.700;23.278;2024-02-21T00:56:04;4.93;;;4.53;;
12802;SDS011;6465;42.700;23.278;2024-02-21T00:58:31;4.83;;;4.53;;
12802;SDS011;6465;42.700;23.278;2024-02-21T01:01:00;5.67;;;5.17;;
12802;SDS011;6465;42.700;23.278;2024-02-21T01:03:28;5.57;;;5.13;;
12802;SDS011;6465;42.700;23.278;2024-02-21T01:05:55;5.00;;;4.60;;
12802;SDS011;6465;42.700;23.278;2024-02-21T01:08:22;5.77;;;5.27;;
12802;SDS011;6465;42.700;23.278;2024-02-21T01:10:49;5.20;;;4.80;;
12802;SDS011;6465;42.700;23.278;2024-02-21T01:13:16;6.13;;;5.63;;
12802;SDS011;6465;42.700;23.278;2024-02-21T01:15:43;5.80;;;5.30;;
12802;SDS011;6465;42.700;23.278;2024-02-21T01:18:11;6.07;;;5.57;;
12802;SDS011;6465;42.700;23.278;2024-02-21T01:20:38;5.53;;;5.03;;
12802;SDS011;6465;42.700;23.278;2024-02-21T01:23:05;5.57;;;5.07;;
12802;SDS011;6465;42.700;23.278;2024-02-21T01:25:32;5.70;;;5.27;;
12802;SDS011;6465;42.700;23.278;2024-02-21T01:27:59;6.67;;;5.47;;
12802;SDS011;6465;42.700;23.278;2024-02-21T01:30:26;5.43;;;5.03;;
12802;SDS011;6465;42.700;23.278;2024-02-21T01:32:53;5.43;;;5.00;;
12802;SDS011;6465;42.700;23.278;2024-02-21T01:35:21;5.80;;;5.33;;
12802;SDS011;6465;42.700;23.278;2024-02-21T01:37:48;5.07;;;4.63;;
12802;SDS011;6465;42.700;23.278;2024-02-21T01:40:16;5.37;;;4.97;;
12802;SDS011;6465;42.700;23.278;2024-02-21T01:42:44;5.80;;;5.30;;
12802;SDS011;6465;42.700;23.278;2024-02-21T01:45:13;5.33;;;4.93;;
12802;SDS011;6465;42.700;23.278;2024-02-21T01:47:40;5.90;;;5.40;;
12802;SDS011;6465;42.700;23.278;2024-02-21T01:50:07;5.90;;;5.30;;
12802;SDS011;6465;42.700;23.278;2024-02-21T01:52:37;5.13;;;4.73;;
12802;SDS011;6465;42.700;23.278;2024-02-21T01:55:04;5.37;;;4.87;;
12802;SDS011;6465;42.700;23.278;2024-02-21T01:57:32;5.57;;;5.10;;
12802;SDS011;6465;42.700;23.278;2024-02-21T01:59:59;5.90;;;5.40;;
12802;SDS011;6465;42.700;23.278;2024-02-21T02:02:26;6.30;;;5.70;;
12802;SDS011;6465;42.700;23.278;2024-02-21T02:04:53;6.73;;;6.07;;
12802;SDS011;6465;42.700;23.278;2024-02-21T02:07:21;6.00;;;5.50;;
12802;SDS011;6465;42.700;23.278;2024-02-21T02:09:49;6.17;;;5.67;;
12802;SDS011;6465;42.700;23.278;2024-02-21T02:12:16;6.90;;;6.20;;
12802;SDS011;6465;42.700;23.278;2024-02-21T02:14:43;6.80;;;6.20;;
12802;SDS011;6465;42.700;23.278;2024-02-21T02:17:10;6.43;;;5.83;;
12802;SDS011;6465;42.700;23.278;2024-02-21T02:19:37;7.10;;;6.50;;
12802;SDS011;6465;42.700;23.278;2024-02-21T02:22:06;6.83;;;6.13;;
12802;SDS011;6465;42.700;23.278;2024-02-21T02:24:41;7.00;;;6.40;;
12802;SDS011;6465;42.700;23.278;2024-02-21T02:27:08;7.17;;;6.53;;
12802;SDS011;6465;42.700;23.278;2024-02-21T02:29:35;7.87;;;7.17;;
12802;SDS011;6465;42.700;23.278;2024-02-21T02:32:02;8.03;;;7.33;;
12802;SDS011;6465;42.700;23.278;2024-02-21T02:34:30;7.80;;;7.10;;
12802;SDS011;6465;42.700;23.278;2024-02-21T02:36:57;8.07;;;7.27;;
12802;SDS011;6465;42.700;23.278;2024-02-21T02:39:24;7.87;;;7.13;;
12802;SDS011;6465;42.700;23.278;2024-02-21T02:41:52;8.83;;;7.40;;
12802;SDS011;6465;42.700;23.278;2024-02-21T02:44:19;8.40;;;7.20;;
12802;SDS011;6465;42.700;23.278;2024-02-21T02:46:46;6.60;;;6.00;;
12802;SDS011;6465;42.700;23.278;2024-02-21T02:49:13;7.83;;;7.13;;
12802;SDS011;6465;42.700;23.278;2024-02-21T02:51:41;8.30;;;7.50;;
12802;SDS011;6465;42.700;23.278;2024-02-21T02:54:09;7.73;;;7.03;;
12802;SDS011;6465;42.700;23.278;2024-02-21T02:56:36;8.27;;;7.47;;
12802;SDS011;6465;42.700;23.278;2024-02-21T02:59:04;8.37;;;7.57;;
12802;SDS011;6465;42.700;23.278;2024-02-21T03:01:33;7.97;;;7.20;;
12802;SDS011;6465;42.700;23.278;2024-02-21T03:04:00;8.37;;;7.53;;
12802;SDS011;6465;42.700;23.278;2024-02-21T03:06:28;8.37;;;7.67;;
12802;SDS011;6465;42.700;23.278;2024-02-21T03:08:55;8.13;;;7.33;;
12802;SDS011;6465;42.700;23.278;2024-02-21T03:11:22;8.63;;;7.83;;
12802;SDS011;6465;42.700;23.278;2024-02-21T03:13:54;8.93;;;8.03;;
12802;SDS011;6465;42.700;23.278;2024-02-21T03:16:23;10.03;;;9.03;;
12802;SDS011;6465;42.700;23.278;2024-02-21T03:18:50;9.80;;;8.90;;
12802;SDS011;6465;42.700;23.278;2024-02-21T03:21:17;9.33;;;8.40;;
12802;SDS011;6465;42.700;23.278;2024-02-21T03:23:44;9.77;;;8.77;;
12802;SDS011;6465;42.700;23.278;2024-02-21T03:26:11;10.40;;;9.40;;
12802;SDS011;6465;42.700;23.278;2024-02-21T03:28:42;9.63;;;8.73;;
12802;SDS011;6465;42.700;23.278;2024-02-21T03:31:10;8.73;;;7.93;;
12802;SDS011;6465;42.700;23.278;2024-02-21T03:33:39;10.13;;;8.70;;
12802;SDS011;6465;42.700;23.278;2024-02-21T03:36:06;9.83;;;8.90;;
12802;SDS011;6465;42.700;23.278;2024-02-21T03:38:39;9.50;;;8.67;;
12802;SDS011;6465;42.700;23.278;2024-02-21T03:41:06;7.97;;;7.17;;
12802;SDS011;6465;42.700;23.278;2024-02-21T03:43:33;8.63;;;7.80;;
12802;SDS011;6465;42.700;23.278;2024-02-21T03:45:59;8.47;;;7.63;;
12802;SDS011;6465;42.700;23.278;2024-02-21T03:48:27;9.00;;;8.10;;
12802;SDS011;6465;42.700;23.278;2024-02-21T03:50:55;8.07;;;7.37;;
12802;SDS011;6465;42.700;23.278;2024-02-21T03:53:22;8.23;;;7.53;;
12802;SDS011;6465;42.700;23.278;2024-02-21T03:55:49;10.67;;;9.60;;
12802;SDS011;6465;42.700;23.278;2024-02-21T03:58:16;10.00;;;9.03;;
12802;SDS011;6465;42.700;23.278;2024-02-21T04:00:43;10.57;;;9.03;;
12802;SDS011;6465;42.700;23.278;2024-02-21T04:03:10;9.70;;;8.70;;
12802;SDS011;6465;42.700;23.278;2024-02-21T04:05:37;9.43;;;8.47;;
12802;SDS011;6465;42.700;23.278;2024-02-21T04:08:06;9.60;;;8.70;;
12802;SDS011;6465;42.700;23.278;2024-02-21T04:10:33;9.97;;;8.90;;
12802;SDS011;6465;42.700;23.278;2024-02-21T04:13:00;10.30;;;8.97;;
12802;SDS011;6465;42.700;23.278;2024-02-21T04:15:27;10.17;;;9.17;;
12802;SDS011;6465;42.700;23.278;2024-02-21T04:17:54;9.97;;;8.97;;
12802;SDS011;6465;42.700;23.278;2024-02-21T04:20:21;9.80;;;8.83;;
12802;SDS011;6465;42.700;23.278;2024-02-21T04:22:48;9.50;;;8.60;;
12802;SDS011;6465;42.700;23.278;2024-02-21T04:25:17;9.63;;;8.73;;
12802;SDS011;6465;42.700;23.278;2024-02-21T04:27:44;10.10;;;9.10;;
12802;SDS011;6465;42.700;23.278;2024-02-21T04:30:11;9.73;;;8.83;;
12802;SDS011;6465;42.700;23.278;2024-02-21T04:32:38;10.77;;;9.73;;
12802;SDS011;6465;42.700;23.278;2024-02-21T04:35:06;9.03;;;8.23;;
12802;SDS011;6465;42.700;23.278;2024-02-21T04:37:34;9.93;;;9.03;;
12802;SDS011;6465;42.700;23.278;2024-02-21T04:40:01;11.13;;;10.00;;
12802;SDS011;6465;42.700;23.278;2024-02-21T04:42:29;10.47;;;9.50;;
12802;SDS011;6465;42.700;23.278;2024-02-21T04:44:56;10.33;;;9.33;;
12802;SDS011;6465;42.700;23.278;2024-02-21T04:47:23;10.93;;;9.90;;
12802;SDS011;6465;42.700;23.278;2024-02-21T04:49:50;10.80;;;9.73;;
12802;SDS011;6465;42.700;23.278;2024-02-21T04:52:17;11.80;;;10.20;;
12802;SDS011;6465;42.700;23.278;2024-02-21T04:54:44;11.47;;;10.27;;
12802;SDS011;6465;42.700;23.278;2024-02-21T04:57:10;13.37;;;11.53;;
12802;SDS011;6465;42.700;23.278;2024-02-21T04:59:43;11.20;;;10.10;;
12802;SDS011;6465;42.700;23.278;2024-02-21T05:02:10;11.67;;;10.47;;
12802;SDS011;6465;42.700;23.278;2024-02-21T05:04:37;11.33;;;9.97;;
12802;SDS011;6465;42.700;23.278;2024-02-21T05:07:05;11.07;;;9.83;;
12802;SDS011;6465;42.700;23.278;2024-02-21T05:09:32;10.17;;;9.27;;
12802;SDS011;6465;42.700;23.278;2024-02-21T05:11:59;10.37;;;9.43;;
12802;SDS011;6465;42.700;23.278;2024-02-21T05:14:26;10.33;;;9.33;;
12802;SDS011;6465;42.700;23.278;2024-02-21T05:16:54;10.40;;;9.40;;
12802;SDS011;6465;42.700;23.278;2024-02-21T05:19:21;9.30;;;8.37;;
12802;SDS011;6465;42.700;23.278;2024-02-21T05:21:48;10.80;;;9.70;;
12802;SDS011;6465;42.700;23.278;2024-02-21T05:24:15;10.87;;;9.77;;
12802;SDS011;6465;42.700;23.278;2024-02-21T05:26:42;11.13;;;9.90;;
12802;SDS011;6465;42.700;23.278;2024-02-21T05:29:09;11.63;;;10.33;;
12802;SDS011;6465;42.700;23.278;2024-02-21T05:34:23;10.50;;;9.50;;
12802;SDS011;6465;42.700;23.278;2024-02-21T05:36:51;10.70;;;9.60;;
12802;SDS011;6465;42.700;23.278;2024-02-21T05:39:19;11.23;;;10.07;;
12802;SDS011;6465;42.700;23.278;2024-02-21T05:41:48;11.10;;;9.90;;
12802;SDS011;6465;42.700;23.278;2024-02-21T05:44:15;11.67;;;10.47;;
12802;SDS011;6465;42.700;23.278;2024-02-21T05:46:42;11.27;;;10.17;;
12802;SDS011;6465;42.700;23.278;2024-02-21T05:49:11;12.03;;;9.73;;
12802;SDS011;6465;42.700;23.278;2024-02-21T05:51:38;12.60;;;11.30;;
12802;SDS011;6465;42.700;23.278;2024-02-21T05:54:05;11.57;;;10.37;;
12802;SDS011;6465;42.700;23.278;2024-02-21T05:56:33;12.00;;;10.80;;
12802;SDS011;6465;42.700;23.278;2024-02-21T05:59:00;11.73;;;10.63;;
12802;SDS011;6465;42.700;23.278;2024-02-21T06:01:27;12.27;;;10.67;;
12802;SDS011;6465;42.700;23.278;2024-02-21T06:03:54;11.80;;;10.50;;
12802;SDS011;6465;42.700;23.278;2024-02-21T06:06:22;11.87;;;10.60;;
12802;SDS011;6465;42.700;23.278;2024-02-21T06:08:50;11.50;;;10.30;;
12802;SDS011;6465;42.700;23.278;2024-02-21T06:11:17;12.43;;;11.13;;
12802;SDS011;6465;42.700;23.278;2024-02-21T06:13:44;12.00;;;10.70;;
12802;SDS011;6465;42.700;23.278;2024-02-21T06:16:10;14.20;;;12.47;;
12802;SDS011;6465;42.700;23.278;2024-02-21T06:18:38;14.40;;;12.87;;
12802;SDS011;6465;42.700;23.278;2024-02-21T06:21:05;14.30;;;12.00;;
12802;SDS011;6465;42.700;23.278;2024-02-21T06:23:33;12.73;;;11.40;;
12802;SDS011;6465;42.700;23.278;2024-02-21T06:26:00;13.07;;;11.73;;
12802;SDS011;6465;42.700;23.278;2024-02-21T06:28:27;11.63;;;10.43;;
12802;SDS011;6465;42.700;23.278;2024-02-21T06:30:54;11.90;;;10.70;;
12802;SDS011;6465;42.700;23.278;2024-02-21T06:33:21;12.97;;;11.67;;
12802;SDS011;6465;42.700;23.278;2024-02-21T06:35:50;12.47;;;11.20;;
12802;SDS011;6465;42.700;23.278;2024-02-21T06:38:19;13.23;;;10.63;;
12802;SDS011;6465;42.700;23.278;2024-02-21T06:40:47;12.73;;;11.40;;
12802;SDS011;6465;42.700;23.278;2024-02-21T06:43:17;13.03;;;11.53;;
12802;SDS011;6465;42.700;23.278;2024-02-21T06:45:45;12.07;;;10.87;;
12802;SDS011;6465;42.700;23.278;2024-02-21T06:48:16;14.40;;;11.83;;
12802;SDS011;6465;42.700;23.278;2024-02-21T06:50:43;15.43;;;13.37;;
12802;SDS011;6465;42.700;23.278;2024-02-21T06:53:10;14.20;;;12.70;;
12802;SDS011;6465;42.700;23.278;2024-02-21T06:55:38;13.80;;;12.40;;
12802;SDS011;6465;42.700;23.278;2024-02-21T06:58:06;14.33;;;12.93;;
12802;SDS011;6465;42.700;23.278;2024-02-21T07:00:36;14.77;;;12.93;;
12802;SDS011;6465;42.700;23.278;2024-02-21T07:03:05;14.63;;;12.73;;
12802;SDS011;6465;42.700;23.278;2024-02-21T07:05:32;18.53;;;12.33;;
12802;SDS011;6465;42.700;23.278;2024-02-21T07:07:59;14.67;;;12.83;;
12802;SDS011;6465;42.700;23.278;2024-02-21T07:10:25;16.10;;;13.10;;
12802;SDS011;6465;42.700;23.278;2024-02-21T07:12:54;13.33;;;11.80;;
12802;SDS011;6465;42.700;23.278;2024-02-21T07:15:22;14.73;;;11.97;;
12802;SDS011;6465;42.700;23.278;2024-02-21T07:17:52;13.93;;;12.43;;
12802;SDS011;6465;42.700;23.278;2024-02-21T07:20:19;13.27;;;11.93;;
12802;SDS011;6465;42.700;23.278;2024-02-21T07:22:46;14.67;;;11.77;;
12802;SDS011;6465;42.700;23.278;2024-02-21T07:25:13;13.00;;;11.70;;
12802;SDS011;6465;42.700;23.278;2024-02-21T07:27:40;14.57;;;12.80;;
12802;SDS011;6465;42.700;23.278;2024-02-21T07:30:07;12.77;;;11.47;;
12802;SDS011;6465;42.700;23.278;2024-02-21T07:32:36;13.73;;;12.30;;
12802;SDS011;6465;42.700;23.278;2024-02-21T07:35:03;14.30;;;12.70;;
12802;SDS011;6465;42.700;23.278;2024-02-21T07:37:35;15.03;;;13.13;;
12802;SDS011;6465;42.700;23.278;2024-02-21T07:40:03;13.90;;;12.43;;
12802;SDS011;6465;42.700;23.278;2024-02-21T07:42:31;14.63;;;13.10;;
12802;SDS011;6465;42.700;23.278;2024-02-21T07:44:58;14.17;;;12.13;;
12802;SDS011;6465;42.700;23.278;2024-02-21T07:47:25;13.97;;;12.50;;
12802;SDS011;6465;42.700;23.278;2024-02-21T07:49:53;13.63;;;12.20;;
12802;SDS011;6465;42.700;23.278;2024-02-21T07:52:20;13.80;;;12.30;;
12802;SDS011;6465;42.700;23.278;2024-02-21T07:54:47;13.47;;;12.17;;
12802;SDS011;6465;42.700;23.278;2024-02-21T07:57:14;13.97;;;12.47;;
12802;SDS011;6465;42.700;23.278;2024-02-21T07:59:41;13.70;;;12.17;;
12802;SDS011;6465;42.700;23.278;2024-02-21T08:02:08;14.27;;;12.47;;
12802;SDS011;6465;42.700;23.278;2024-02-21T08:04:35;13.53;;;12.13;;
12802;SDS011;6465;42.700;23.278;2024-02-21T08:07:05;14.57;;;13.17;;
12802;SDS011;6465;42.700;23.278;2024-02-21T08:09:32;16.43;;;12.03;;
12802;SDS011;6465;42.700;23.278;2024-02-21T08:11:59;16.63;;;12.57;;
12802;SDS011;6465;42.700;23.278;2024-02-21T08:14:27;15.77;;;11.80;;
12802;SDS011;6465;42.700;23.278;2024-02-21T08:16:54;14.03;;;12.57;;
12802;SDS011;6465;42.700;23.278;2024-02-21T08:19:21;14.70;;;12.23;;
12802;SDS011;6465;42.700;23.278;2024-02-21T08:21:48;14.40;;;12.90;;
12802;SDS011;6465;42.700;23.278;2024-02-21T08:24:17;13.77;;;12.37;;
12802;SDS011;6465;42.700;23.278;2024-02-21T08:26:44;12.90;;;11.60;;
12802;SDS011;6465;42.700;23.278;2024-02-21T08:29:11;15.00;;;13.47;;
12802;SDS011;6465;42.700;23.278;2024-02-21T08:31:38;13.23;;;11.93;;
12802;SDS011;6465;42.700;23.278;2024-02-21T08:34:05;14.53;;;12.47;;
12802;SDS011;6465;42.700;23.278;2024-02-21T08:36:32;13.30;;;11.90;;
12802;SDS011;6465;42.700;23.278;2024-02-21T08:39:00;12.43;;;11.23;;
12802;SDS011;6465;42.700;23.278;2024-02-21T08:41:31;13.33;;;11.93;;
12802;SDS011;6465;42.700;23.278;2024-02-21T08:43:58;12.47;;;11.27;;
12802;SDS011;6465;42.700;23.278;2024-02-21T08:46:26;12.13;;;10.93;;
12802;SDS011;6465;42.700;23.278;2024-02-21T08:48:53;11.53;;;10.33;;
12802;SDS011;6465;42.700;23.278;2024-02-21T08:51:20;12.57;;;11.27;;
12802;SDS011;6465;42.700;23.278;2024-02-21T08:53:47;12.30;;;11.00;;
12802;SDS011;6465;42.700;23.278;2024-02-21T08:56:15;14.10;;;12.60;;
12802;SDS011;6465;42.700;23.278;2024-02-21T08:58:44;13.53;;;12.13;;
12802;SDS011;6465;42.700;23.278;2024-02-21T09:01:12;20.43;;;18.07;;
12802;SDS011;6465;42.700;23.278;2024-02-21T09:03:40;13.40;;;12.10;;
12802;SDS011;6465;42.700;23.278;2024-02-21T09:06:07;14.37;;;12.27;;
12802;SDS011;6465;42.700;23.278;2024-02-21T09:08:35;13.67;;;12.37;;
12802;SDS011;6465;42.700;23.278;2024-02-21T09:11:02;13.17;;;11.77;;
12802;SDS011;6465;42.700;23.278;2024-02-21T09:13:32;12.13;;;10.97;;
12802;SDS011;6465;42.700;23.278;2024-02-21T09:16:01;13.53;;;12.23;;
12802;SDS011;6465;42.700;23.278;2024-02-21T09:18:28;13.20;;;11.90;;
12802;SDS011;6465;42.700;23.278;2024-02-21T09:20:55;12.87;;;11.67;;
12802;SDS011;6465;42.700;23.278;2024-02-21T09:23:23;12.63;;;11.43;;
12802;SDS011;6465;42.700;23.278;2024-02-21T09:25:51;13.50;;;12.20;;
12802;SDS011;6465;42.700;23.278;2024-02-21T09:28:18;13.40;;;12.10;;
12802;SDS011;6465;42.700;23.278;2024-02-21T09:30:45;13.43;;;12.07;;
12802;SDS011;6465;42.700;23.278;2024-02-21T09:33:14;14.10;;;12.70;;
12802;SDS011;6465;42.700;23.278;2024-02-21T09:35:41;13.70;;;12.33;;
12802;SDS011;6465;42.700;23.278;2024-02-21T09:38:08;13.03;;;11.73;;
12802;SDS011;6465;42.700;23.278;2024-02-21T09:40:35;13.17;;;11.80;;
12802;SDS011;6465;42.700;23.278;2024-02-21T09:43:04;13.30;;;12.00;;
12802;SDS011;6465;42.700;23.278;2024-02-21T09:45:32;12.77;;;11.67;;
12802;SDS011;6465;42.700;23.278;2024-02-21T09:50:56;11.63;;;10.53;;
12802;SDS011;6465;42.700;23.278;2024-02-21T09:53:25;12.07;;;10.97;;
12802;SDS011;6465;42.700;23.278;2024-02-21T09:55:54;11.43;;;10.43;;
12802;SDS011;6465;42.700;23.278;2024-02-21T09:58:21;11.40;;;10.30;;
12802;SDS011;6465;42.700;23.278;2024-02-21T10:00:51;10.90;;;9.93;;
12802;SDS011;6465;42.700;23.278;2024-02-21T10:03:19;12.10;;;10.90;;
12802;SDS011;6465;42.700;23.278;2024-02-21T10:05:47;10.33;;;9.40;;
12802;SDS011;6465;42.700;23.278;2024-02-21T10:08:16;10.17;;;9.27;;
12802;SDS011;6465;42.700;23.278;2024-02-21T10:10:43;12.00;;;10.80;;
12802;SDS011;6465;42.700;23.278;2024-02-21T10:13:10;10.93;;;9.87;;
12802;SDS011;6465;42.700;23.278;2024-02-21T10:15:59;9.30;;;8.50;;
12802;SDS011;6465;42.700;23.278;2024-02-21T10:18:28;8.30;;;7.60;;
12802;SDS011;6465;42.700;23.278;2024-02-21T10:21:02;9.20;;;8.30;;
12802;SDS011;6465;42.700;23.278;2024-02-21T10:23:40;9.20;;;8.40;;
12802;SDS011;6465;42.700;23.278;2024-02-21T10:26:08;8.80;;;8.10;;
12802;SDS011;6465;42.700;23.278;2024-02-21T10:28:35;9.73;;;8.83;;
12802;SDS011;6465;42.700;23.278;2024-02-21T10:31:07;10.07;;;9.07;;
12802;SDS011;6465;42.700;23.278;2024-02-21T10:33:35;7.87;;;7.20;;
12802;SDS011;6465;42.700;23.278;2024-02-21T10:36:06;7.60;;;6.90;;
12802;SDS011;6465;42.700;23.278;2024-02-21T10:38:35;8.93;;;8.03;;
12802;SDS011;6465;42.700;23.278;2024-02-21T10:41:02;10.90;;;9.57;;
12802;SDS011;6465;42.700;23.278;2024-02-21T10:43:32;7.70;;;7.10;;
12802;SDS011;6465;42.700;23.278;2024-02-21T10:46:06;9.97;;;8.23;;
12802;SDS011;6465;42.700;23.278;2024-02-21T10:48:38;8.07;;;7.37;;
12802;SDS011;6465;42.700;23.278;2024-02-21T10:51:14;6.50;;;5.90;;
12802;SDS011;6465;42.700;23.278;2024-02-21T10:53:44;6.53;;;6.03;;
12802;SDS011;6465;42.700;23.278;2024-02-21T10:56:18;7.03;;;6.33;;
12802;SDS011;6465;42.700;23.278;2024-02-21T10:58:49;6.77;;;5.73;;
12802;SDS011;6465;42.700;23.278;2024-02-21T11:01:17;6.00;;;5.50;;
12802;SDS011;6465;42.700;23.278;2024-02-21T11:03:46;5.40;;;4.90;;
12802;SDS011;6465;42.700;23.278;2024-02-21T11:06:16;5.80;;;5.23;;
12802;SDS011;6465;42.700;23.278;2024-02-21T11:08:44;5.90;;;4.70;;
12802;SDS011;6465;42.700;23.278;2024-02-21T11:11:12;5.37;;;4.97;;
12802;SDS011;6465;42.700;23.278;2024-02-21T11:13:43;4.47;;;4.17;;
12802;SDS011;6465;42.700;23.278;2024-02-21T11:16:11;4.10;;;3.80;;
12802;SDS011;6465;42.700;23.278;2024-02-21T11:18:49;4.10;;;3.80;;
12802;SDS011;6465;42.700;23.278;2024-02-21T11:21:16;4.63;;;4.33;;
12802;SDS011;6465;42.700;23.278;2024-02-21T11:23:43;5.27;;;4.83;;
12802;SDS011;6465;42.700;23.278;2024-02-21T11:26:22;5.57;;;5.07;;
12802;SDS011;6465;42.700;23.278;2024-02-21T11:28:55;5.30;;;4.80;;
12802;SDS011;6465;42.700;23.278;2024-02-21T11:31:24;4.53;;;4.23;;
12802;SDS011;6465;42.700;23.278;2024-02-21T11:33:54;5.00;;;4.60;;
12802;SDS011;6465;42.700;23.278;2024-02-21T11:36:24;4.37;;;4.07;;
12802;SDS011;6465;42.700;23.278;2024-02-21T11:38:52;5.20;;;4.80;;
12802;SDS011;6465;42.700;23.278;2024-02-21T11:41:19;4.40;;;4.10;;
12802;SDS011;6465;42.700;23.278;2024-02-21T11:43:48;6.00;;;5.50;;
12802;SDS011;6465;42.700;23.278;2024-02-21T11:46:16;4.93;;;4.40;;
12802;SDS011;6465;42.700;23.278;2024-02-21T11:48:44;4.77;;;4.37;;
12802;SDS011;6465;42.700;23.278;2024-02-21T11:51:24;4.67;;;4.30;;
12802;SDS011;6465;42.700;23.278;2024-02-21T11:53:51;5.37;;;4.87;;
12802;SDS011;6465;42.700;23.278;2024-02-21T11:56:18;5.30;;;4.80;;
12802;SDS011;6465;42.700;23.278;2024-02-21T11:58:45;5.20;;;4.80;;
12802;SDS011;6465;42.700;23.278;2024-02-21T12:01:13;5.30;;;4.83;;
12802;SDS011;6465;42.700;23.278;2024-02-21T12:03:40;6.23;;;5.00;;
12802;SDS011;6465;42.700;23.278;2024-02-21T12:06:14;5.53;;;5.03;;
12802;SDS011;6465;42.700;23.278;2024-02-21T12:08:46;5.43;;;4.93;;
12802;SDS011;6465;42.700;23.278;2024-02-21T12:11:16;5.33;;;4.87;;
12802;SDS011;6465;42.700;23.278;2024-02-21T12:13:45;5.40;;;4.90;;
12802;SDS011;6465;42.700;23.278;2024-02-21T12:16:14;4.97;;;4.57;;
12802;SDS011;6465;42.700;23.278;2024-02-21T12:18:43;5.43;;;4.93;;
12802;SDS011;6465;42.700;23.278;2024-02-21T12:21:10;4.93;;;4.47;;
12802;SDS011;6465;42.700;23.278;2024-02-21T12:23:37;5.00;;;4.50;;
12802;SDS011;6465;42.700;23.278;2024-02-21T12:26:06;5.53;;;4.67;;
12802;SDS011;6465;42.700;23.278;2024-02-21T12:28:33;4.50;;;4.20;;
12802;SDS011;6465;42.700;23.278;2024-02-21T12:31:00;5.50;;;5.00;;
12802;SDS011;6465;42.700;23.278;2024-02-21T12:33:29;5.70;;;5.20;;
12802;SDS011;6465;42.700;23.278;2024-02-21T12:35:58;8.83;;;7.13;;
12802;SDS011;6465;42.700;23.278;2024-02-21T12:38:25;5.83;;;5.10;;
12802;SDS011;6465;42.700;23.278;2024-02-21T12:40:52;5.80;;;5.30;;
12802;SDS011;6465;42.700;23.278;2024-02-21T12:43:20;6.07;;;5.50;;
12802;SDS011;6465;42.700;23.278;2024-02-21T12:45:47;6.50;;;5.67;;
12802;SDS011;6465;42.700;23.278;2024-02-21T12:48:14;6.30;;;5.70;;
12802;SDS011;6465;42.700;23.278;2024-02-21T12:50:41;6.23;;;5.73;;
12802;SDS011;6465;42.700;23.278;2024-02-21T12:53:15;7.27;;;6.63;;
12802;SDS011;6465;42.700;23.278;2024-02-21T12:55:42;7.10;;;6.43;;
12802;SDS011;6465;42.700;23.278;2024-02-21T12:58:09;7.60;;;6.40;;
12802;SDS011;6465;42.700;23.278;2024-02-21T13:00:37;5.60;;;5.10;;
12802;SDS011;6465;42.700;23.278;2024-02-21T13:03:04;5.93;;;5.43;;
12802;SDS011;6465;42.700;23.278;2024-02-21T13:05:31;6.13;;;5.33;;
12802;SDS011;6465;42.700;23.278;2024-02-21T13:07:58;6.77;;;6.17;;
12802;SDS011;6465;42.700;23.278;2024-02-21T13:10:25;6.17;;;5.67;;
12802;SDS011;6465;42.700;23.278;2024-02-21T13:12:52;6.70;;;6.17;;
12802;SDS011;6465;42.700;23.278;2024-02-21T13:15:19;7.50;;;6.80;;
12802;SDS011;6465;42.700;23.278;2024-02-21T13:17:48;7.13;;;6.63;;
12802;SDS011;6465;42.700;23.278;2024-02-21T13:20:15;6.90;;;6.30;;
12802;SDS011;6465;42.700;23.278;2024-02-21T13:22:42;6.33;;;5.70;;
12802;SDS011;6465;42.700;23.278;2024-02-21T13:25:09;7.90;;;6.20;;
12802;SDS011;6465;42.700;23.278;2024-02-21T13:27:36;6.30;;;5.70;;
12802;SDS011;6465;42.700;23.278;2024-02-21T13:30:03;4.97;;;4.57;;
12802;SDS011;6465;42.700;23.278;2024-02-21T13:32:32;5.30;;;4.90;;
12802;SDS011;6465;42.700;23.278;2024-02-21T13:35:01;5.50;;;5.00;;
12802;SDS011;6465;42.700;23.278;2024-02-21T13:37:28;5.63;;;5.03;;
12802;SDS011;6465;42.700;23.278;2024-02-21T13:39:55;5.77;;;5.17;;
12802;SDS011;6465;42.700;23.278;2024-02-21T13:42:22;6.13;;;5.40;;
12802;SDS011;6465;42.700;23.278;2024-02-21T13:44:52;6.07;;;5.57;;
12802;SDS011;6465;42.700;23.278;2024-02-21T13:47:19;7.87;;;5.53;;
12802;SDS011;6465;42.700;23.278;2024-02-21T13:49:47;6.70;;;6.00;;
12802;SDS011;6465;42.700;23.278;2024-02-21T13:52:16;7.50;;;5.93;;
12802;SDS011;6465;42.700;23.278;2024-02-21T13:54:45;7.17;;;6.30;;
12802;SDS011;6465;42.700;23.278;2024-02-21T13:57:12;6.73;;;6.13;;
12802;SDS011;6465;42.700;23.278;2024-02-21T13:59:39;6.13;;;5.63;;
12802;SDS011;6465;42.700;23.278;2024-02-21T14:02:08;5.67;;;5.17;;
12802;SDS011;6465;42.700;23.278;2024-02-21T14:04:35;4.80;;;4.47;;
12802;SDS011;6465;42.700;23.278;2024-02-21T14:07:02;5.57;;;5.07;;
12802;SDS011;6465;42.700;23.278;2024-02-21T14:09:30;5.60;;;5.20;;
12802;SDS011;6465;42.700;23.278;2024-02-21T14:11:58;6.20;;;4.90;;
12802;SDS011;6465;42.700;23.278;2024-02-21T14:14:25;5.93;;;5.43;;
12802;SDS011;6465;42.700;23.278;2024-02-21T14:16:52;5.97;;;5.47;;
12802;SDS011;6465;42.700;23.278;2024-02-21T14:19:19;6.70;;;6.00;;
12802;SDS011;6465;42.700;23.278;2024-02-21T14:21:46;5.63;;;5.20;;
12802;SDS011;6465;42.700;23.278;2024-02-21T14:24:13;6.83;;;6.13;;
12802;SDS011;6465;42.700;23.278;2024-02-21T14:26:42;6.40;;;5.80;;
12802;SDS011;6465;42.700;23.278;2024-02-21T14:29:09;7.40;;;6.47;;
12802;SDS011;6465;42.700;23.278;2024-02-21T14:31:36;7.13;;;6.20;;
12802;SDS011;6465;42.700;23.278;2024-02-21T14:34:03;7.03;;;6.43;;
12802;SDS011;6465;42.700;23.278;2024-02-21T14:36:30;7.00;;;6.40;;
12802;SDS011;6465;42.700;23.278;2024-02-21T14:38:58;6.93;;;6.33;;
12802;SDS011;6465;42.700;23.278;2024-02-21T14:41:25;7.37;;;6.67;;
12802;SDS011;6465;42.700;23.278;2024-02-21T14:43:54;6.07;;;5.57;;
12802;SDS011;6465;42.700;23.278;2024-02-21T14:46:25;7.00;;;6.30;;
12802;SDS011;6465;42.700;23.278;2024-02-21T14:48:53;7.07;;;5.97;;